createdAt,value
2023-02-16T00:00:24.093Z,52.42
2023-02-16T00:02:50.676Z,53.15
2023-02-16T00:05:37.404Z,52.67
2023-02-16T00:08:04.084Z,50.45
2023-02-16T00:10:33.528Z,57.22
2023-02-16T00:13:19.380Z,50.92
2023-02-16T00:15:46.527Z,53.38
2023-02-16T00:18:21.894Z,53.25
2023-02-16T00:20:49.477Z,53.72
2023-02-16T00:23:16.233Z,56.78
2023-02-16T00:25:42.973Z,56.22
2023-02-16T00:28:19.414Z,53.38
2023-02-16T00:30:46.799Z,53.22
2023-02-16T00:33:19.112Z,54.45
2023-02-16T00:35:45.792Z,52.17
2023-02-16T00:38:13.203Z,52.80
2023-02-16T00:40:41.648Z,54.03
2023-02-16T00:43:10.106Z,54.80
2023-02-16T00:45:38.188Z,51.92
2023-02-16T00:48:05.197Z,53.42
2023-02-16T00:50:34.222Z,51.85
2023-02-16T00:53:02.685Z,53.08
2023-02-16T00:55:33.434Z,51.83
2023-02-16T00:58:15.394Z,50.92
2023-02-16T01:00:52.234Z,51.58
2023-02-16T01:03:24.266Z,54.47
2023-02-16T01:06:15.168Z,51.67
2023-02-16T01:09:01.496Z,54.53
2023-02-16T01:11:28.856Z,52.20
2023-02-16T01:13:56.787Z,54.83
2023-02-16T01:16:36.559Z,52.80
2023-02-16T01:19:03.478Z,53.38
2023-02-16T01:21:30.035Z,49.75
2023-02-16T01:23:56.637Z,55.10
2023-02-16T01:26:23.915Z,52.92
2023-02-16T01:28:50.600Z,53.83
2023-02-16T01:31:17.172Z,51.03
2023-02-16T01:33:44.057Z,51.60
2023-02-16T01:36:24.476Z,53.92
2023-02-16T01:38:51.058Z,51.53
2023-02-16T01:41:28.293Z,53.65
2023-02-16T01:44:18.776Z,54.25
2023-02-16T01:46:50.951Z,51.40
2023-02-16T01:49:20.106Z,53.47
2023-02-16T01:51:58.283Z,51.92
2023-02-16T01:54:52.312Z,53.80
2023-02-16T01:57:25.604Z,52.72
2023-02-16T01:59:55.786Z,53.58
2023-02-16T02:02:27.550Z,54.20
2023-02-16T02:05:19.009Z,52.83
2023-02-16T02:07:52.109Z,55.28
2023-02-16T02:10:28.536Z,52.53
2023-02-16T02:13:36.137Z,52.67
2023-02-16T02:16:04.917Z,55.45
2023-02-16T02:18:32.929Z,54.28
2023-02-16T02:21:46.372Z,56.90
2023-02-16T02:24:50.639Z,53.25
2023-02-16T02:27:39.186Z,54.58
2023-02-16T02:30:23.809Z,53.42
2023-02-16T02:32:56.690Z,55.10
2023-02-16T02:35:42.532Z,53.75
2023-02-16T02:38:15.456Z,53.20
2023-02-16T02:40:57.888Z,57.33
2023-02-16T02:43:52.590Z,53.25
2023-02-16T02:46:26.813Z,55.97
2023-02-16T02:48:53.440Z,56.55
2023-02-16T02:51:30.450Z,56.33
2023-02-16T02:54:32.756Z,55.65
2023-02-16T02:57:26.219Z,55.33
2023-02-16T03:00:21.623Z,56.65
2023-02-16T03:02:51.804Z,55.17
2023-02-16T03:05:22.217Z,55.05
2023-02-16T03:07:52.396Z,59.22
2023-02-16T03:10:45.140Z,58.38
2023-02-16T03:13:24.021Z,57.30
2023-02-16T03:15:55.980Z,59.67
2023-02-16T03:18:45.064Z,57.75
2023-02-16T03:21:33.290Z,58.17
2023-02-16T03:24:21.358Z,59.28
2023-02-16T03:27:09.336Z,56.45
2023-02-16T03:29:37.090Z,54.05
2023-02-16T03:32:04.187Z,54.78
2023-02-16T03:34:31.989Z,57.50
2023-02-16T03:37:00.744Z,58.67
2023-02-16T03:39:28.894Z,57.30
2023-02-16T03:41:57.250Z,60.25
2023-02-16T03:44:27.320Z,58.55
2023-02-16T03:46:53.864Z,56.60
2023-02-16T03:49:20.735Z,57.90
2023-02-16T03:51:47.388Z,59.50
2023-02-16T03:54:13.937Z,59.83
2023-02-16T03:56:40.453Z,60.38
2023-02-16T03:59:06.986Z,57.75
2023-02-16T04:01:33.558Z,60.50
2023-02-16T04:04:00.141Z,59.33
2023-02-16T04:06:26.703Z,58.45
2023-02-16T04:08:54.451Z,59.85
2023-02-16T04:11:39.601Z,62.47
2023-02-16T04:14:06.231Z,58.63
2023-02-16T04:18:59.732Z,59.55
2023-02-16T04:21:26.225Z,59.63
2023-02-16T04:23:52.856Z,60.03
2023-02-16T04:26:19.399Z,58.22
2023-02-16T04:28:46.217Z,60.65
2023-02-16T04:31:12.777Z,59.75
2023-02-16T04:33:39.436Z,61.95
2023-02-16T04:36:06.482Z,62.28
2023-02-16T04:38:33.078Z,62.22
2023-02-16T04:41:00.094Z,59.67
2023-02-16T04:43:26.657Z,63.10
2023-02-16T04:45:53.314Z,60.03
2023-02-16T04:48:19.817Z,60.45
2023-02-16T04:50:46.349Z,61.22
2023-02-16T04:53:12.839Z,61.60
2023-02-16T04:55:39.384Z,63.45
2023-02-16T04:58:05.941Z,59.95
2023-02-16T05:00:33.604Z,59.25
2023-02-16T05:03:01.034Z,63.55
2023-02-16T05:05:27.499Z,58.65
2023-02-16T05:07:54.050Z,59.20
2023-02-16T05:10:20.656Z,60.90
2023-02-16T05:13:05.723Z,62.85
2023-02-16T05:15:32.316Z,60.80
2023-02-16T05:17:58.914Z,57.88
2023-02-16T05:20:45.436Z,57.65
2023-02-16T05:23:11.970Z,60.95
2023-02-16T05:25:38.525Z,60.30
2023-02-16T05:28:05.349Z,60.97
2023-02-16T05:30:32.041Z,59.75
2023-02-16T05:32:58.539Z,59.22
2023-02-16T05:35:25.080Z,61.20
2023-02-16T05:37:51.690Z,57.30
2023-02-16T05:40:18.338Z,61.65
2023-02-16T05:42:44.937Z,60.50
2023-02-16T05:45:11.496Z,59.33
2023-02-16T05:47:38.394Z,61.20
2023-02-16T05:50:05.430Z,60.58
2023-02-16T05:52:31.991Z,58.03
2023-02-16T05:54:58.470Z,59.67
2023-02-16T05:57:25.030Z,62.33
2023-02-16T05:59:51.572Z,60.97
2023-02-16T06:02:18.256Z,57.78
2023-02-16T06:04:44.845Z,62.45
2023-02-16T06:07:13.802Z,63.55
2023-02-16T06:09:41.405Z,61.60
2023-02-16T06:12:07.981Z,62.20
2023-02-16T06:14:34.530Z,60.75
2023-02-16T06:17:01.449Z,59.72
2023-02-16T06:19:28.037Z,58.30
2023-02-16T06:21:54.591Z,58.95
2023-02-16T06:24:21.130Z,57.70
2023-02-16T06:26:47.656Z,58.13
2023-02-16T06:29:14.221Z,60.00
2023-02-16T06:31:40.863Z,57.25
2023-02-16T06:34:07.551Z,58.90
2023-02-16T06:36:35.292Z,58.30
2023-02-16T06:39:02.269Z,59.33
2023-02-16T06:41:32.104Z,58.70
2023-02-16T06:44:04.642Z,57.67
2023-02-16T06:46:31.376Z,61.42
2023-02-16T06:48:58.195Z,58.13
2023-02-16T06:51:25.577Z,58.22
2023-02-16T06:53:52.173Z,58.25
2023-02-16T06:56:18.745Z,58.80
2023-02-16T06:58:45.249Z,58.35
2023-02-16T07:01:12.064Z,56.83
2023-02-16T07:03:38.677Z,57.90
2023-02-16T07:06:05.866Z,56.22
2023-02-16T07:08:32.454Z,55.92
2023-02-16T07:10:58.969Z,57.60
2023-02-16T07:13:25.495Z,59.22
2023-02-16T07:15:52.209Z,60.08
2023-02-16T07:18:19.170Z,57.35
2023-02-16T07:20:45.717Z,57.58
2023-02-16T07:23:12.216Z,58.05
2023-02-16T07:25:38.839Z,64.68
2023-02-16T07:28:05.426Z,57.03
2023-02-16T07:30:32.033Z,58.63
2023-02-16T07:32:58.612Z,59.13
2023-02-16T07:35:25.444Z,57.75
2023-02-16T07:37:51.984Z,58.20
2023-02-16T07:40:18.585Z,60.28
2023-02-16T07:42:45.140Z,56.50
2023-02-16T07:45:11.781Z,55.47
2023-02-16T07:47:38.314Z,57.90
2023-02-16T07:50:05.824Z,57.92
2023-02-16T07:52:32.462Z,55.50
2023-02-16T07:54:59.201Z,54.97
2023-02-16T07:57:26.987Z,58.53
2023-02-16T07:59:54.045Z,54.92
2023-02-16T08:02:24.526Z,55.22
2023-02-16T08:04:53.919Z,55.67
2023-02-16T08:07:20.985Z,55.17
2023-02-16T08:09:47.507Z,57.65
2023-02-16T08:12:15.685Z,56.15
2023-02-16T08:14:42.798Z,52.33
2023-02-16T08:17:09.891Z,56.20
2023-02-16T08:19:39.240Z,54.78
2023-02-16T08:22:07.144Z,53.97
2023-02-16T08:24:34.701Z,55.55
2023-02-16T08:27:04.617Z,53.15
2023-02-16T08:29:32.728Z,58.63
2023-02-16T08:31:59.731Z,53.60
2023-02-16T08:34:26.863Z,58.08
2023-02-16T08:36:56.425Z,53.17
2023-02-16T08:39:26.026Z,55.95
2023-02-16T08:41:53.619Z,57.40
2023-02-16T08:44:22.515Z,53.45
2023-02-16T08:46:51.345Z,54.20
2023-02-16T08:49:19.305Z,54.55
2023-02-16T08:51:52.700Z,52.53
2023-02-16T08:54:22.432Z,53.42
2023-02-16T08:56:49.595Z,52.97
2023-02-16T08:59:17.901Z,54.25
2023-02-16T09:01:44.902Z,49.17
2023-02-16T09:04:11.779Z,54.72
2023-02-16T09:06:40.248Z,51.15
2023-02-16T09:09:08.759Z,53.33
2023-02-16T09:11:36.510Z,55.67
2023-02-16T09:14:04.082Z,53.80
2023-02-16T09:16:38.329Z,53.50
2023-02-16T09:19:07.740Z,53.50
2023-02-16T09:21:34.318Z,55.95
2023-02-16T09:24:04.515Z,52.67
2023-02-16T09:26:34.244Z,50.03
2023-02-16T09:29:02.052Z,54.67
2023-02-16T09:31:32.509Z,50.85
2023-02-16T09:34:05.723Z,54.03
2023-02-16T09:36:32.504Z,52.25
2023-02-16T09:38:59.711Z,52.85
2023-02-16T09:41:41.232Z,51.88
2023-02-16T09:44:17.121Z,57.22
2023-02-16T09:46:43.910Z,52.47
2023-02-16T09:49:40.783Z,52.50
2023-02-16T09:52:27.702Z,54.28
2023-02-16T09:54:57.608Z,52.35
2023-02-16T09:57:56.998Z,53.88
2023-02-16T10:00:32.366Z,54.67
2023-02-16T10:03:14.152Z,56.03
2023-02-16T10:06:14.156Z,54.92
2023-02-16T10:08:46.840Z,53.58
2023-02-16T10:11:38.143Z,55.65
2023-02-16T10:14:46.971Z,54.93
2023-02-16T10:17:17.041Z,56.10
2023-02-16T10:19:49.524Z,53.70
2023-02-16T10:22:40.897Z,54.95
2023-02-16T10:25:24.807Z,56.58
2023-02-16T10:28:05.918Z,56.42
2023-02-16T10:30:32.761Z,56.63
2023-02-16T10:33:24.213Z,60.00
2023-02-16T10:36:01.575Z,57.60
2023-02-16T10:38:57.764Z,58.30
2023-02-16T10:41:36.934Z,58.03
2023-02-16T10:44:21.685Z,58.97
2023-02-16T10:46:58.457Z,58.55
2023-02-16T10:49:25.850Z,57.40
2023-02-16T10:51:55.351Z,59.15
2023-02-16T10:54:32.531Z,60.42
2023-02-16T10:57:23.770Z,60.33
2023-02-16T10:59:50.616Z,60.23
2023-02-16T11:02:30.330Z,61.05
2023-02-16T11:04:58.643Z,60.33
2023-02-16T11:07:31.167Z,60.38
2023-02-16T11:10:01.317Z,65.07
2023-02-16T11:12:32.358Z,60.03
2023-02-16T11:15:06.052Z,67.87
2023-02-16T11:17:55.149Z,63.35
2023-02-16T11:20:45.063Z,60.72
2023-02-16T11:23:17.665Z,62.90
2023-02-16T11:26:03.736Z,62.33
2023-02-16T11:28:36.737Z,66.38
2023-02-16T11:31:38.531Z,68.40
2023-02-16T11:34:12.544Z,60.50
2023-02-16T11:36:44.468Z,63.40
2023-02-16T11:41:54.264Z,67.80
2023-02-16T11:44:44.411Z,61.35
2023-02-16T11:47:28.604Z,66.35
2023-02-16T11:50:23.654Z,65.18
2023-02-16T11:53:09.328Z,66.03
2023-02-16T11:55:38.907Z,66.63
2023-02-16T11:58:25.237Z,63.25
2023-02-16T12:01:42.844Z,63.58
2023-02-16T12:04:33.693Z,65.93
2023-02-16T12:07:20.244Z,65.97
2023-02-16T12:10:12.429Z,65.47
2023-02-16T12:15:48.086Z,63.17
2023-02-16T12:18:29.647Z,60.55
2023-02-16T12:21:04.532Z,63.05
2023-02-16T12:23:42.647Z,61.78
2023-02-16T12:26:22.097Z,63.17
2023-02-16T12:28:54.433Z,61.55
2023-02-16T12:31:28.267Z,60.72
2023-02-16T12:34:13.716Z,59.08
2023-02-16T12:36:53.159Z,59.47
2023-02-16T12:39:35.410Z,58.95
2023-02-16T12:42:35.849Z,63.33
2023-02-16T12:45:10.791Z,60.55
2023-02-16T12:47:49.576Z,55.33
2023-02-16T12:50:24.122Z,58.30
2023-02-16T12:53:41.134Z,59.75
2023-02-16T12:56:14.451Z,55.42
2023-02-16T12:58:45.584Z,51.58
2023-02-16T13:01:18.780Z,55.90
2023-02-16T13:04:26.685Z,49.05
2023-02-16T13:07:16.324Z,49.13
2023-02-16T13:09:59.982Z,46.72
2023-02-16T13:12:40.717Z,49.28
2023-02-16T13:15:30.459Z,46.03
2023-02-16T13:18:01.837Z,50.13
2023-02-16T13:20:28.739Z,45.85
2023-02-16T13:23:20.877Z,56.40
2023-02-16T13:28:46.374Z,41.42
2023-02-16T13:31:31.292Z,42.22
2023-02-16T13:34:22.407Z,42.42
2023-02-16T13:36:54.872Z,42.85
2023-02-16T13:39:44.229Z,42.63
2023-02-16T13:42:33.876Z,40.08
2023-02-16T13:45:04.060Z,41.60
2023-02-16T13:47:38.349Z,39.75
2023-02-16T13:50:08.676Z,40.70
2023-02-16T13:52:41.088Z,40.20
2023-02-16T13:55:29.227Z,39.08
2023-02-16T13:58:04.553Z,38.40
2023-02-16T14:00:42.067Z,38.63
2023-02-16T14:03:17.687Z,35.60
2023-02-16T14:05:48.135Z,34.35
2023-02-16T14:08:29.596Z,35.92
2023-02-16T14:10:57.390Z,37.20
2023-02-16T14:13:29.848Z,34.75
2023-02-16T14:16:00.797Z,34.60
2023-02-16T14:18:58.443Z,34.53
2023-02-16T14:21:34.252Z,34.25
2023-02-16T14:24:03.197Z,32.63
2023-02-16T14:26:31.842Z,31.90
2023-02-16T14:29:17.506Z,28.40
2023-02-16T14:31:50.970Z,31.05
2023-02-16T14:34:43.047Z,29.88
2023-02-16T14:37:16.130Z,30.02
2023-02-16T14:40:06.933Z,27.00
2023-02-16T14:42:35.727Z,28.02
2023-02-16T14:45:34.262Z,28.80
2023-02-16T14:48:13.375Z,30.67
2023-02-16T14:51:01.616Z,27.23
2023-02-16T14:54:02.264Z,28.25
2023-02-16T14:56:39.082Z,27.40
2023-02-16T14:59:17.658Z,29.05
2023-02-16T15:01:45.772Z,31.17
2023-02-16T15:04:12.530Z,28.55
2023-02-16T15:06:42.723Z,29.67
2023-02-16T15:09:25.542Z,30.75
2023-02-16T15:12:22.986Z,30.85
2023-02-16T15:14:57.227Z,30.15
2023-02-16T15:17:39.347Z,30.63
2023-02-16T15:20:19.705Z,28.98
2023-02-16T15:22:54.816Z,31.83
2023-02-16T15:25:26.087Z,30.50
2023-02-16T15:28:08.756Z,28.77
2023-02-16T15:30:39.299Z,31.52
2023-02-16T15:33:14.038Z,28.95
2023-02-16T15:35:42.645Z,28.88
2023-02-16T15:38:19.631Z,29.15
2023-02-16T15:40:46.806Z,28.20
2023-02-16T15:43:30.836Z,27.10
2023-02-16T15:45:58.731Z,32.20
2023-02-16T15:48:31.594Z,29.90
2023-02-16T15:51:12.951Z,30.50
2023-02-16T15:53:46.614Z,29.67
2023-02-16T15:56:39.901Z,27.38
2023-02-16T15:59:26.421Z,31.60
2023-02-16T16:02:04.119Z,29.33
2023-02-16T16:04:31.775Z,31.40
2023-02-16T16:07:00.058Z,30.23
2023-02-16T16:09:32.916Z,31.45
2023-02-16T16:12:10.710Z,32.20
2023-02-16T16:14:42.853Z,33.05
2023-02-16T16:17:15.684Z,33.22
2023-02-16T16:19:42.269Z,33.15
2023-02-16T16:22:29.313Z,30.08
2023-02-16T16:24:55.843Z,31.90
2023-02-16T16:27:36.040Z,33.03
2023-02-16T16:30:26.313Z,32.08
2023-02-16T16:33:11.872Z,36.20
2023-02-16T16:35:44.444Z,33.75
2023-02-16T16:38:27.541Z,32.85
2023-02-16T16:40:57.692Z,30.58
2023-02-16T16:43:28.646Z,30.58
2023-02-16T16:46:12.232Z,31.02
2023-02-16T16:48:44.233Z,31.52
2023-02-16T16:51:15.184Z,31.92
2023-02-16T16:53:50.363Z,31.57
2023-02-16T16:56:17.289Z,34.15
2023-02-16T16:58:43.909Z,32.35
2023-02-16T17:01:12.857Z,32.83
2023-02-16T17:03:39.348Z,34.08
2023-02-16T17:06:06.873Z,36.47
2023-02-16T17:08:33.501Z,33.03
2023-02-16T17:11:01.617Z,35.63
2023-02-16T17:13:28.162Z,33.15
2023-02-16T17:16:02.598Z,32.15
2023-02-16T17:18:29.487Z,32.92
2023-02-16T17:20:56.123Z,31.15
2023-02-16T17:23:23.056Z,34.47
2023-02-16T17:25:50.519Z,35.40
2023-02-16T17:28:18.915Z,35.50
2023-02-16T17:30:45.826Z,33.13
2023-02-16T17:33:12.751Z,35.40
2023-02-16T17:35:41.676Z,35.40
2023-02-16T17:38:10.483Z,34.05
2023-02-16T17:40:37.258Z,37.35
2023-02-16T17:43:10.842Z,34.15
2023-02-16T17:45:37.385Z,37.03
2023-02-16T17:48:04.065Z,35.75
2023-02-16T17:50:32.736Z,35.65
2023-02-16T17:52:59.786Z,38.60
2023-02-16T17:55:26.318Z,33.40
2023-02-16T17:57:55.690Z,34.60
2023-02-16T18:00:22.697Z,31.42
2023-02-16T18:02:49.318Z,34.35
2023-02-16T18:05:15.905Z,34.42
2023-02-16T18:07:42.482Z,34.97
2023-02-16T18:10:16.342Z,35.10
2023-02-16T18:12:42.872Z,37.58
2023-02-16T18:15:09.488Z,37.67
2023-02-16T18:17:36.105Z,39.78
2023-02-16T18:20:04.216Z,37.30
2023-02-16T18:22:30.807Z,35.83
2023-02-16T18:24:57.368Z,37.13
2023-02-16T18:27:27.472Z,38.53
2023-02-16T18:29:55.857Z,41.17
2023-02-16T18:32:22.416Z,40.58
2023-02-16T18:34:49.118Z,38.60
2023-02-16T18:37:15.679Z,36.38
2023-02-16T18:39:42.913Z,42.83
2023-02-16T18:42:10.138Z,39.40
2023-02-16T18:44:36.652Z,37.80
2023-02-16T18:47:03.314Z,40.58
2023-02-16T18:49:29.860Z,40.42
2023-02-16T18:51:57.185Z,39.33
2023-02-16T18:54:23.949Z,39.58
2023-02-16T18:56:50.714Z,39.70
2023-02-16T18:59:17.271Z,44.60
2023-02-16T19:01:43.829Z,41.35
2023-02-16T19:04:12.022Z,45.60
2023-02-16T19:06:39.309Z,41.95
2023-02-16T19:09:05.921Z,42.15
2023-02-16T19:11:33.702Z,41.38
2023-02-16T19:14:00.334Z,42.08
2023-02-16T19:16:26.925Z,43.03
2023-02-16T19:18:53.424Z,42.35
2023-02-16T19:21:19.983Z,42.55
2023-02-16T19:23:46.825Z,42.15
2023-02-16T19:26:15.754Z,41.92
2023-02-16T19:28:42.911Z,42.67
2023-02-16T19:31:17.299Z,44.20
2023-02-16T19:33:43.934Z,45.05
2023-02-16T19:36:12.699Z,43.13
2023-02-16T19:38:39.778Z,42.38
2023-02-16T19:41:14.942Z,43.03
2023-02-16T19:43:42.135Z,46.22
2023-02-16T19:46:10.270Z,42.40
2023-02-16T19:48:36.934Z,46.90
2023-02-16T19:51:05.747Z,46.85
2023-02-16T19:53:33.809Z,44.38
2023-02-16T19:56:00.483Z,47.05
2023-02-16T19:58:27.089Z,46.28
2023-02-16T20:00:53.604Z,47.30
2023-02-16T20:03:20.114Z,47.20
2023-02-16T20:05:46.583Z,47.33
2023-02-16T20:08:13.182Z,47.75
2023-02-16T20:10:41.826Z,48.45
2023-02-16T20:13:08.445Z,49.80
2023-02-16T20:15:35.184Z,50.58
2023-02-16T20:18:01.794Z,49.92
2023-02-16T20:20:28.538Z,52.42
2023-02-16T20:22:55.024Z,48.95
2023-02-16T20:25:21.574Z,48.28
2023-02-16T20:27:48.170Z,48.97
2023-02-16T20:30:19.678Z,47.13
2023-02-16T20:32:49.214Z,47.95
2023-02-16T20:35:16.264Z,48.15
2023-02-16T20:37:42.906Z,47.10
2023-02-16T20:40:09.932Z,47.53
2023-02-16T20:42:36.522Z,49.28
2023-02-16T20:45:03.348Z,47.30
2023-02-16T20:47:29.876Z,48.53
2023-02-16T20:49:56.420Z,49.03
2023-02-16T20:52:23.079Z,47.05
2023-02-16T20:54:49.601Z,46.30
2023-02-16T20:57:26.486Z,47.15
2023-02-16T20:59:54.492Z,47.33
2023-02-16T21:02:21.080Z,46.15
2023-02-16T21:04:47.660Z,47.15
2023-02-16T21:07:14.198Z,47.53
2023-02-16T21:09:40.849Z,48.88
2023-02-16T21:12:07.442Z,48.70
2023-02-16T21:14:33.950Z,46.15
2023-02-16T21:17:00.582Z,46.78
2023-02-16T21:19:27.179Z,49.58
2023-02-16T21:21:53.710Z,47.90
2023-02-16T21:24:20.466Z,48.60
2023-02-16T21:26:47.073Z,47.78
2023-02-16T21:29:16.878Z,51.65
2023-02-16T21:31:43.505Z,46.88
2023-02-16T21:34:10.135Z,47.85
2023-02-16T21:36:37.610Z,47.72
2023-02-16T21:39:04.972Z,46.67
2023-02-16T21:41:31.771Z,48.15
2023-02-16T21:44:07.760Z,51.55
2023-02-16T21:46:38.741Z,48.15
2023-02-16T21:49:07.241Z,47.87
2023-02-16T21:51:35.706Z,47.17
2023-02-16T21:54:04.620Z,47.70
2023-02-16T21:56:43.194Z,43.85
2023-02-16T21:59:14.722Z,44.10
2023-02-16T22:01:47.187Z,44.50
2023-02-16T22:04:16.284Z,45.58
2023-02-16T22:06:45.487Z,45.38
2023-02-16T22:09:20.914Z,45.60
2023-02-16T22:11:48.027Z,43.25
2023-02-16T22:14:14.894Z,41.53
2023-02-16T22:16:41.599Z,41.33
2023-02-16T22:19:12.237Z,40.80
2023-02-16T22:21:40.625Z,38.03
2023-02-16T22:24:07.917Z,42.10
2023-02-16T22:26:35.640Z,37.78
2023-02-16T22:29:04.366Z,40.97
2023-02-16T22:31:31.061Z,37.20
2023-02-16T22:33:59.702Z,40.47
2023-02-16T22:36:26.473Z,36.65
2023-02-16T22:38:54.014Z,34.33
2023-02-16T22:41:21.386Z,34.60
2023-02-16T22:43:48.156Z,35.78
2023-02-16T22:46:16.546Z,36.25
2023-02-16T22:48:43.978Z,34.60
2023-02-16T22:51:13.116Z,35.58
2023-02-16T22:53:39.682Z,37.80
2023-02-16T22:56:08.363Z,37.03
2023-02-16T22:58:35.080Z,35.17
2023-02-16T23:01:01.647Z,34.00
2023-02-16T23:03:29.233Z,35.65
2023-02-16T23:05:56.092Z,34.38
2023-02-16T23:08:22.989Z,34.53
2023-02-16T23:11:01.896Z,36.88
2023-02-16T23:13:30.248Z,36.03
2023-02-16T23:16:02.104Z,37.20
2023-02-16T23:20:55.057Z,33.83
2023-02-16T23:23:21.573Z,37.45
2023-02-16T23:25:49.494Z,34.20
2023-02-16T23:28:16.181Z,34.60
2023-02-16T23:30:46.842Z,32.00
2023-02-16T23:33:13.474Z,32.60
2023-02-16T23:35:41.137Z,30.50
2023-02-16T23:38:13.600Z,31.38
2023-02-16T23:40:40.717Z,28.20
2023-02-16T23:43:07.694Z,26.77
2023-02-16T23:45:34.902Z,25.67
2023-02-16T23:48:01.586Z,22.25
2023-02-16T23:50:28.168Z,23.70
2023-02-16T23:52:54.694Z,21.75
2023-02-16T23:55:21.257Z,20.90
2023-02-16T23:57:47.737Z,21.15
